Time;durP1;ratioP1;P1;durP2;ratioP2;P2;SDS_P1;SDS_P2;PMS_P1;PMS_P2;Temp;Humidity;BMP_temperature;BMP_pressure;BME280_temperature;BME280_humidity;BME280_pressure;Samples;Min_cycle;Max_cycle;Signal;HPM_P1;HPM_P2
2023/06/02 00:01:00;;;;;;;8.52;2.47;;;;;;;13.47;62.71;98901.84;5094640;28;20579;-42
2023/06/02 00:03:31;;;;;;;5.80;2.58;;;;;;;13.30;62.78;98886.31;5094598;28;20036;-42
2023/06/02 00:06:05;;;;;;;7.18;2.42;;;;;;;13.56;62.68;98935.25;5094163;28;20059;-41
2023/06/02 00:08:36;;;;;;;6.85;2.38;;;;;;;13.27;62.86;98899.53;5077904;28;20123;-41
2023/06/02 00:11:02;;;;;;;8.30;2.50;;;;;;;13.42;62.99;98935.22;5094704;28;20043;-41
2023/06/02 00:13:28;;;;;;;5.75;2.38;;;;;;;13.40;62.76;98940.50;5059706;28;20074;-40
2023/06/02 00:15:54;;;;;;;5.28;2.17;;;;;;;13.36;63.11;98931.19;5074937;28;20463;-41
2023/06/02 00:18:22;;;;;;;7.22;2.28;;;;;;;13.34;63.10;98940.88;5076606;28;20092;-40
2023/06/02 00:20:49;;;;;;;8.00;2.35;;;;;;;13.31;63.05;98945.41;5076265;28;20067;-42
2023/06/02 00:23:15;;;;;;;6.72;1.77;;;;;;;13.28;63.11;98943.00;5072271;28;20040;-41
2023/06/02 00:25:41;;;;;;;5.75;2.38;;;;;;;13.22;63.41;98933.75;5074287;28;20097;-42
2023/06/02 00:28:07;;;;;;;3.90;1.83;;;;;;;13.18;63.25;98931.41;5038563;28;20151;-41
2023/06/02 00:30:36;;;;;;;6.15;2.08;;;;;;;13.14;63.80;98928.09;5091381;28;20036;-42
2023/06/02 00:33:02;;;;;;;;;;;;;;;13.10;63.75;98929.19;5056751;28;20046;-40
2023/06/02 00:35:28;;;;;;;8.98;2.20;;;;;;;13.01;63.69;98921.88;5072943;28;19916;-41
2023/06/02 00:38:02;;;;;;;4.38;1.85;;;;;;;12.99;63.79;98921.09;5072361;28;20372;-42
2023/06/02 00:40:28;;;;;;;7.45;1.95;;;;;;;12.95;64.14;98919.59;5072650;28;20044;-41
2023/06/02 00:42:54;;;;;;;3.85;1.80;;;;;;;12.91;64.34;98916.34;5073173;28;20047;-42
2023/06/02 00:45:21;;;;;;;5.10;1.90;;;;;;;12.90;64.43;98925.09;5073190;28;20751;-41
2023/06/02 00:47:46;;;;;;;4.82;2.38;;;;;;;12.86;64.48;98920.97;5052054;28;20131;-41
2023/06/02 00:50:12;;;;;;;6.78;2.13;;;;;;;12.71;64.42;98893.13;5074906;28;20499;-41
2023/06/02 00:52:39;;;;;;;4.00;2.28;;;;;;;12.80;64.54;98916.09;5072102;28;20044;-41
2023/06/02 00:55:07;;;;;;;6.43;2.40;;;;;;;12.67;64.82;98895.06;5071963;28;20106;-41
2023/06/02 00:57:34;;;;;;;6.22;2.08;;;;;;;12.80;65.20;98929.13;5090889;28;20499;-43
2023/06/02 01:00:05;;;;;;;6.78;2.13;;;;;;;12.80;65.36;98923.06;5055318;28;20044;-43
2023/06/02 01:02:32;;;;;;;5.60;2.25;;;;;;;12.79;65.12;98929.22;5090787;28;20054;-41
2023/06/02 01:05:00;;;;;;;3.53;2.17;;;;;;;12.76;65.48;98917.19;5090655;28;20548;-43
2023/06/02 01:07:27;;;;;;;5.35;2.42;;;;;;;12.73;65.46;98920.81;5071664;28;20050;-41
2023/06/02 01:09:58;;;;;;;5.00;2.33;;;;;;;12.71;65.24;98917.44;5090773;28;20093;-41
2023/06/02 01:12:24;;;;;;;8.18;2.42;;;;;;;12.63;65.04;98914.41;5090496;28;20036;-42
2023/06/02 01:14:51;;;;;;;4.32;2.20;;;;;;;12.72;65.34;98929.53;5090428;28;20032;-41
2023/06/02 01:17:19;;;;;;;6.50;2.28;;;;;;;12.72;65.43;98937.38;5055176;28;20418;-41
2023/06/02 01:19:49;;;;;;;6.15;2.25;;;;;;;12.71;65.38;98943.53;5090280;28;20035;-41
2023/06/02 01:22:23;;;;;;;6.10;1.95;;;;;;;12.54;65.55;98914.06;5089865;28;20522;-41
2023/06/02 01:24:49;;;;;;;4.68;2.42;;;;;;;12.67;65.58;98936.78;5052471;28;20051;-41
2023/06/02 01:27:16;;;;;;;19.35;2.75;;;;;;;12.66;65.43;98942.09;5035485;28;20044;-41
2023/06/02 01:29:43;;;;;;;11.18;2.65;;;;;;;12.66;65.46;98947.31;5055472;28;20123;-41
2023/06/02 01:32:18;;;;;;;5.15;2.03;;;;;;;12.67;65.95;98943.75;5051800;28;20582;-41
2023/06/02 01:34:52;;;;;;;8.75;2.60;;;;;;;12.69;66.38;98949.75;5071449;28;20039;-40
2023/06/02 01:37:19;;;;;;;7.82;2.20;;;;;;;12.55;66.18;98924.44;5088658;28;20052;-42
2023/06/02 01:39:46;;;;;;;10.57;2.47;;;;;;;12.67;66.11;98948.97;5053030;28;20082;-41
2023/06/02 01:42:14;;;;;;;6.00;2.00;;;;;;;12.69;66.42;98955.81;5087934;28;20675;-41
2023/06/02 01:44:41;;;;;;;7.38;2.20;;;;;;;12.70;66.62;98951.44;5087727;28;20093;-42
2023/06/02 01:47:08;;;;;;;4.63;3.10;;;;;;;12.71;66.44;98940.09;5088051;28;20074;-41
2023/06/02 01:49:34;;;;;;;9.88;2.60;;;;;;;12.77;66.42;98944.13;5069242;28;20131;-43
2023/06/02 01:52:00;;;;;;;4.88;2.40;;;;;;;12.82;66.22;98945.56;5087747;28;20052;-42
2023/06/02 01:54:25;;;;;;;7.05;2.83;;;;;;;12.81;66.13;98943.03;5070739;28;20060;-41
2023/06/02 01:56:52;;;;;;;5.25;2.38;;;;;;;12.85;66.27;98947.13;5071277;28;20046;-41
2023/06/02 01:59:18;;;;;;;4.68;2.08;;;;;;;12.85;66.60;98945.38;5071221;28;20095;-41
2023/06/02 02:01:44;;;;;;;6.25;2.22;;;;;;;12.86;66.41;98951.44;5067488;28;20067;-41
2023/06/02 02:04:11;;;;;;;5.18;2.50;;;;;;;12.89;66.27;98959.06;5069046;28;20400;-42
2023/06/02 02:06:37;;;;;;;7.32;2.42;;;;;;;12.89;66.03;98949.50;5083816;28;20066;-43
2023/06/02 02:09:03;;;;;;;6.38;2.15;;;;;;;12.92;66.02;98943.28;5070717;28;20043;-44
2023/06/02 02:11:30;;;;;;;8.85;2.15;;;;;;;12.97;66.32;98941.25;5071168;28;20101;-42
2023/06/02 02:13:55;;;;;;;6.47;2.13;;;;;;;13.02;66.23;98941.84;5071395;28;20074;-41
2023/06/02 02:16:21;;;;;;;8.48;2.05;;;;;;;13.10;66.14;98952.66;5069844;28;20067;-43
2023/06/02 02:18:47;;;;;;;5.68;2.08;;;;;;;13.01;65.77;98930.56;5071031;28;20482;-41
2023/06/02 02:21:14;;;;;;;5.68;1.90;;;;;;;13.29;65.34;98957.75;5071159;28;20119;-42
2023/06/02 02:23:40;;;;;;;7.40;2.17;;;;;;;13.44;65.32;98965.53;5088578;28;20047;-42
2023/06/02 02:26:06;;;;;;;6.45;2.35;;;;;;;13.28;64.89;98915.13;5088460;28;20032;-43
2023/06/02 02:28:32;;;;;;;8.20;2.40;;;;;;;13.66;64.33;98965.09;5089098;28;20040;-41
2023/06/02 02:30:58;;;;;;;5.32;1.95;;;;;;;13.76;64.00;98966.28;5071107;28;20040;-41
2023/06/02 02:33:25;;;;;;;4.18;1.77;;;;;;;13.71;63.38;98936.94;5070111;28;20054;-48
2023/06/02 02:35:53;;;;;;;7.47;2.47;;;;;;;13.91;63.21;98962.75;5070809;28;20490;-41
2023/06/02 02:38:19;;;;;;;6.20;2.08;;;;;;;13.97;63.07;98966.78;5037420;28;20435;-42
2023/06/02 02:40:46;;;;;;;3.80;1.80;;;;;;;14.00;62.81;98966.59;5070837;28;20070;-42
2023/06/02 02:43:15;;;;;;;11.75;2.40;;;;;;;14.03;62.86;98968.19;5070309;28;20044;-41
2023/06/02 02:45:41;;;;;;;4.90;1.88;;;;;;;14.07;62.76;98967.06;5070656;28;20042;-42
2023/06/02 02:48:07;;;;;;;4.03;2.03;;;;;;;14.13;62.66;98957.06;5088950;28;20040;-42
2023/06/02 02:50:34;;;;;;;9.68;2.22;;;;;;;14.17;62.69;98953.34;5087889;28;20078;-41
2023/06/02 02:53:01;;;;;;;6.72;2.53;;;;;;;14.19;62.87;98966.31;5070819;28;20164;-43
2023/06/02 02:55:27;;;;;;;7.38;2.00;;;;;;;14.20;62.84;98958.38;5088213;28;20056;-42
2023/06/02 02:57:54;;;;;;;10.15;2.25;;;;;;;14.23;62.51;98967.84;5070495;28;20044;-42
2023/06/02 03:00:21;;;;;;;5.20;1.80;;;;;;;14.26;62.23;98970.25;5070484;28;20043;-42
2023/06/02 03:02:47;;;;;;;3.92;2.13;;;;;;;14.29;61.72;98973.50;5070302;28;20044;-42
2023/06/02 03:05:13;;;;;;;5.55;2.00;;;;;;;14.30;61.36;98969.13;5074320;28;20055;-42
2023/06/02 03:07:44;;;;;;;7.43;2.42;;;;;;;14.37;61.25;98984.41;5070237;28;20122;-42
2023/06/02 03:10:11;;;;;;;8.70;2.30;;;;;;;14.47;60.80;98975.97;5037061;28;20036;-42
2023/06/02 03:12:37;;;;;;;6.22;2.13;;;;;;;14.68;60.47;98978.09;5053842;28;20051;-43
2023/06/02 03:15:03;;;;;;;7.28;1.92;;;;;;;14.88;59.96;98981.25;5070332;28;20036;-41
2023/06/02 03:17:30;;;;;;;6.25;2.20;;;;;;;14.99;59.37;98984.88;5073345;28;20054;-42
2023/06/02 03:19:56;;;;;;;8.85;2.03;;;;;;;15.01;59.42;98976.94;5070236;28;20051;-42
2023/06/02 03:22:22;;;;;;;5.28;2.88;;;;;;;15.04;58.94;98979.34;5088337;28;20126;-43
2023/06/02 03:24:51;;;;;;;9.30;2.38;;;;;;;15.07;59.31;98979.16;5052584;28;20127;-43
2023/06/02 03:27:18;;;;;;;7.75;2.50;;;;;;;15.12;59.00;98984.94;5069565;28;20052;-42
2023/06/02 03:29:50;;;;;;;4.03;2.28;;;;;;;15.23;58.88;98982.44;5071013;28;20477;-41
2023/06/02 03:32:20;;;;;;;9.48;2.40;;;;;;;15.38;58.49;98981.50;5070164;28;20071;-42
2023/06/02 03:34:48;;;;;;;7.88;2.50;;;;;;;15.55;57.34;98964.66;5069226;28;20039;-41
2023/06/02 03:37:15;;;;;;;6.88;2.60;;;;;;;15.80;56.84;98977.00;5070134;28;20040;-41
2023/06/02 03:39:44;;;;;;;8.13;2.10;;;;;;;15.76;56.35;98939.66;5050407;28;20417;-42
2023/06/02 03:42:10;;;;;;;14.48;3.03;;;;;;;16.11;55.84;98974.00;5069550;28;20060;-41
2023/06/02 03:44:36;;;;;;;9.55;2.95;;;;;;;16.23;55.64;98970.50;5052790;28;20506;-42
2023/06/02 03:47:02;;;;;;;6.43;2.30;;;;;;;16.33;55.48;98974.19;5053492;28;20683;-42
2023/06/02 03:49:29;;;;;;;5.40;2.30;;;;;;;16.41;55.02;98978.91;5070008;28;20047;-40
2023/06/02 03:51:57;;;;;;;5.78;2.58;;;;;;;16.37;54.57;98957.31;5052879;28;20136;-42
2023/06/02 03:54:25;;;;;;;4.65;1.58;;;;;;;16.56;54.11;98977.84;5069347;28;20747;-41
2023/06/02 03:56:51;;;;;;;6.72;1.80;;;;;;;16.48;53.19;98953.94;5069988;28;20071;-41
2023/06/02 03:59:17;;;;;;;2.78;1.55;;;;;;;16.57;52.41;98965.56;5069856;28;20042;-42
2023/06/02 04:01:43;;;;;;;5.35;1.75;;;;;;;16.70;51.85;98987.38;5070762;28;20126;-42
2023/06/02 04:04:11;;;;;;;3.35;1.77;;;;;;;16.68;52.04;98981.44;5073827;28;20050;-42
2023/06/02 04:06:41;;;;;;;7.72;1.70;;;;;;;16.61;52.34;98986.25;5072865;28;20422;-42
2023/06/02 04:09:11;;;;;;;;;;;;;;;16.52;52.32;98974.59;5074112;28;20051;-42
2023/06/02 04:11:37;;;;;;;7.95;1.70;;;;;;;16.39;52.40;98960.63;5091061;28;20311;-41
2023/06/02 04:14:03;;;;;;;6.15;1.83;;;;;;;16.36;51.77;98958.25;5073469;28;20040;-42
2023/06/02 04:16:30;;;;;;;2.13;1.25;;;;;;;16.33;51.52;98950.56;5091769;28;20044;-43
2023/06/02 04:18:56;;;;;;;6.53;1.90;;;;;;;16.33;51.35;98929.59;5072669;28;20093;-42
2023/06/02 04:21:22;;;;;;;10.23;1.80;;;;;;;16.12;51.54;98890.91;5072727;28;20527;-43
2023/06/02 04:23:48;;;;;;;2.03;1.10;;;;;;;16.46;52.27;98935.66;5078397;28;20071;-43
2023/06/02 04:26:15;;;;;;;7.22;2.25;;;;;;;16.52;52.67;98950.97;5069321;28;20042;-42
2023/06/02 04:28:41;;;;;;;7.35;1.85;;;;;;;16.58;53.09;98954.97;5053173;28;20079;-43
2023/06/02 04:31:09;;;;;;;3.92;1.40;;;;;;;16.55;53.10;98955.16;5061022;28;20071;-43
2023/06/02 04:33:38;;;;;;;4.97;1.60;;;;;;;16.59;53.18;98958.47;5040410;28;20127;-45
2023/06/02 04:36:07;;;;;;;2.83;1.40;;;;;;;16.63;53.41;98957.28;5052853;28;20127;-41
2023/06/02 04:38:34;;;;;;;7.57;2.47;;;;;;;16.68;53.75;98949.94;5086185;28;20071;-42
2023/06/02 04:41:01;;;;;;;3.67;1.58;;;;;;;16.75;53.54;98952.00;5072642;28;20036;-43
2023/06/02 04:43:28;;;;;;;5.15;1.70;;;;;;;16.71;52.45;98933.94;5070693;28;20475;-42
2023/06/02 04:45:56;;;;;;;4.57;1.80;;;;;;;16.86;52.31;98938.94;5038402;28;20050;-42
2023/06/02 04:48:23;;;;;;;9.00;2.40;;;;;;;17.01;52.27;98938.81;5077246;28;20097;-42
2023/06/02 04:50:49;;;;;;;8.27;2.30;;;;;;;17.15;52.22;98941.25;5077062;28;20584;-42
2023/06/02 04:53:16;;;;;;;5.30;1.90;;;;;;;17.32;52.30;98948.75;5066762;28;20071;-42
2023/06/02 04:55:45;;;;;;;6.82;2.15;;;;;;;17.36;52.01;98945.78;5080326;28;20704;-44
2023/06/02 04:58:12;;;;;;;7.88;2.60;;;;;;;17.44;52.03;98958.34;5072811;28;20047;-44
2023/06/02 05:00:38;;;;;;;3.90;2.00;;;;;;;17.45;51.64;98954.75;5073021;28;20042;-45
2023/06/02 05:03:06;;;;;;;7.30;1.92;;;;;;;17.18;51.50;98918.22;5084500;28;20091;-41
2023/06/02 05:05:32;;;;;;;5.28;1.80;;;;;;;17.30;51.39;98954.09;5067265;28;20455;-43
2023/06/02 05:07:58;;;;;;;6.63;2.35;;;;;;;17.22;51.98;98948.56;5077386;28;20250;-44
2023/06/02 05:10:25;;;;;;;5.80;2.28;;;;;;;17.18;51.94;98956.78;5055770;28;20427;-43
2023/06/02 05:12:53;;;;;;;5.00;2.17;;;;;;;17.14;52.50;98964.06;5089622;28;20043;-50
2023/06/02 05:15:20;;;;;;;5.28;2.10;;;;;;;17.11;53.25;98956.41;5072024;28;20108;-40
2023/06/02 05:17:48;;;;;;;5.63;2.83;;;;;;;17.05;53.61;98948.13;5071223;28;20043;-57
2023/06/02 05:20:16;;;;;;;17.38;6.40;;;;;;;17.06;54.65;98945.38;5072208;28;20286;-51
2023/06/02 05:22:42;;;;;;;7.13;2.28;;;;;;;17.15;54.92;98951.75;5054258;28;20127;-46
2023/06/02 05:25:09;;;;;;;5.43;2.55;;;;;;;17.30;54.89;98940.97;5051129;28;20048;-45
2023/06/02 05:27:35;;;;;;;9.73;3.20;;;;;;;17.45;54.60;98953.91;5064648;28;20043;-43
2023/06/02 05:30:01;;;;;;;5.15;2.92;;;;;;;17.58;54.76;98954.72;5053770;28;20430;-46
2023/06/02 05:32:27;;;;;;;11.52;2.58;;;;;;;17.57;54.77;98927.56;5071142;28;20048;-45
2023/06/02 05:34:54;;;;;;;8.40;3.03;;;;;;;17.90;53.94;98954.94;5071339;28;20044;-46
2023/06/02 05:37:21;;;;;;;10.85;2.40;;;;;;;18.08;53.51;98941.22;5071137;28;20419;-43
2023/06/02 05:39:47;;;;;;;8.65;2.97;;;;;;;18.33;52.37;98942.78;5061814;28;20110;-46
2023/06/02 05:42:14;;;;;;;6.28;2.65;;;;;;;18.54;51.72;98943.78;5064208;28;20102;-45
2023/06/02 05:44:40;;;;;;;6.32;2.55;;;;;;;18.74;50.81;98929.00;5064007;28;20264;-46
2023/06/02 05:47:07;;;;;;;7.25;2.97;;;;;;;18.69;50.17;98906.63;5055514;28;20426;-44
2023/06/02 05:49:32;;;;;;;10.93;3.25;;;;;;;19.03;49.85;98927.53;5087964;28;20036;-47
2023/06/02 05:51:59;;;;;;;5.82;2.50;;;;;;;19.17;49.33;98931.66;5061408;28;20044;-43
2023/06/02 05:54:25;;;;;;;8.70;2.35;;;;;;;19.20;49.29;98933.22;5077237;28;20093;-44
2023/06/02 05:56:51;;;;;;;8.82;2.60;;;;;;;19.18;48.84;98932.50;5090224;28;20072;-44
2023/06/02 05:59:18;;;;;;;10.52;2.85;;;;;;;19.26;48.76;98930.09;5058463;28;20045;-46
2023/06/02 06:01:44;;;;;;;9.95;2.33;;;;;;;19.28;48.86;98931.63;5072634;28;20542;-44
2023/06/02 06:04:10;;;;;;;5.35;2.30;;;;;;;19.34;48.50;98936.41;5071147;28;20090;-45
2023/06/02 06:06:38;;;;;;;8.32;2.25;;;;;;;19.28;48.23;98941.34;5066108;28;20036;-44
2023/06/02 06:09:05;;;;;;;8.60;2.50;;;;;;;19.35;48.18;98942.53;5083486;28;20534;-47
2023/06/02 06:11:33;;;;;;;14.40;2.72;;;;;;;19.46;48.01;98945.16;5066722;28;20056;-42
2023/06/02 06:14:00;;;;;;;8.13;2.70;;;;;;;19.59;47.80;98939.69;5069683;28;20126;-46
2023/06/02 06:16:28;;;;;;;5.17;2.50;;;;;;;19.71;47.96;98930.75;5067575;28;20100;-45
2023/06/02 06:18:55;;;;;;;10.32;2.83;;;;;;;19.99;47.50;98943.31;5071041;28;20423;-53
2023/06/02 06:21:22;;;;;;;6.53;2.30;;;;;;;19.98;46.56;98941.63;5037796;28;20058;-51
2023/06/02 06:23:49;;;;;;;8.20;2.47;;;;;;;20.20;46.18;98932.72;5067355;28;20052;-46
2023/06/02 06:26:16;;;;;;;11.48;2.53;;;;;;;20.43;45.80;98938.66;5070891;28;20038;-50
2023/06/02 06:28:43;;;;;;;5.53;2.00;;;;;;;20.50;45.24;98943.31;5071242;28;20126;-51
2023/06/02 06:31:12;;;;;;;5.00;2.40;;;;;;;20.64;44.64;98918.31;5034774;28;20055;-48
2023/06/02 06:33:37;;;;;;;7.47;2.67;;;;;;;21.12;43.65;98948.34;5051071;28;20044;-45
2023/06/02 06:36:03;;;;;;;6.80;1.80;;;;;;;21.45;42.25;98939.22;5050708;28;20051;-46
2023/06/02 06:38:29;;;;;;;6.25;1.70;;;;;;;22.19;41.11;98926.13;5043028;28;20047;-48
2023/06/02 06:40:55;;;;;;;4.93;2.30;;;;;;;23.17;39.90;98920.22;5052471;28;20040;-47
2023/06/02 06:43:22;;;;;;;7.50;2.97;;;;;;;24.13;37.91;98926.50;5053701;28;20035;-49
2023/06/02 06:45:54;;;;;;;6.22;2.38;;;;;;;24.23;37.49;98922.78;5070863;28;20058;-49
2023/06/02 06:48:21;;;;;;;4.55;2.55;;;;;;;24.58;36.99;98927.09;5070715;28;20047;-46
2023/06/02 06:50:49;;;;;;;10.07;3.67;;;;;;;25.62;35.51;98931.03;5088506;28;20043;-47
2023/06/02 06:53:16;;;;;;;8.02;4.38;;;;;;;26.78;34.39;98923.47;5070956;28;20506;-48
2023/06/02 06:55:42;;;;;;;10.35;3.70;;;;;;;27.40;32.74;98914.44;5089055;28;20134;-49
2023/06/02 06:58:07;;;;;;;7.47;3.08;;;;;;;28.14;31.25;98914.66;5088539;28;20174;-48
2023/06/02 07:00:33;;;;;;;5.90;3.10;;;;;;;28.21;30.68;98910.25;5089027;28;20076;-47
2023/06/02 07:02:59;;;;;;;6.40;2.90;;;;;;;29.00;29.71;98919.28;5088505;28;20073;-48
2023/06/02 07:05:25;;;;;;;10.70;3.15;;;;;;;29.16;28.71;98903.00;5088483;28;20524;-46
2023/06/02 07:07:51;;;;;;;7.50;2.75;;;;;;;30.21;28.00;98911.97;5088212;28;20092;-48
2023/06/02 07:10:17;;;;;;;5.35;3.28;;;;;;;31.59;26.71;98911.72;5088415;28;20048;-47
2023/06/02 07:12:43;;;;;;;9.82;3.30;;;;;;;32.73;25.25;98912.19;5088112;28;20043;-47
2023/06/02 07:15:09;;;;;;;6.82;3.42;;;;;;;32.38;25.13;98909.81;5070553;28;20040;-49
2023/06/02 07:17:35;;;;;;;8.02;3.22;;;;;;;31.38;25.75;98901.97;5088753;28;20046;-48
2023/06/02 07:20:01;;;;;;;6.38;2.85;;;;;;;30.35;26.78;98898.66;5088017;28;20048;-47
2023/06/02 07:22:29;;;;;;;6.70;3.13;;;;;;;30.03;26.83;98903.63;5088684;28;20135;-47
2023/06/02 07:24:55;;;;;;;8.32;2.55;;;;;;;30.87;25.50;98898.09;5088419;28;20054;-49
2023/06/02 07:27:21;;;;;;;5.55;2.58;;;;;;;31.42;24.94;98905.06;5088738;28;20043;-47
2023/06/02 07:29:47;;;;;;;12.30;2.95;;;;;;;31.53;24.26;98894.53;5070049;28;20044;-48
2023/06/02 07:32:50;;;;;;;5.65;2.80;;;;;;;32.09;23.80;98887.91;5088390;28;20040;-49
2023/06/02 07:35:16;;;;;;;6.80;3.08;;;;;;;33.36;23.06;98894.25;5086842;28;20082;-47
2023/06/02 07:37:42;;;;;;;7.78;3.13;;;;;;;34.33;21.93;98888.28;5072871;28;20072;-49
2023/06/02 07:40:08;;;;;;;8.02;3.25;;;;;;;35.05;21.03;98883.00;5073884;28;20047;-50
2023/06/02 07:42:34;;;;;;;8.60;2.50;;;;;;;35.22;21.23;98855.16;5092228;28;20447;-50
2023/06/02 07:45:52;;;;;;;6.43;3.13;;;;;;;35.91;20.02;98886.03;5092017;28;20525;-47
2023/06/02 07:48:18;;;;;;;10.52;3.00;;;;;;;35.44;20.36;98858.09;5092556;28;20036;-49
2023/06/02 07:50:44;;;;;;;10.70;2.95;;;;;;;35.39;20.21;98870.66;5092004;28;20043;-48
2023/06/02 07:53:10;;;;;;;7.53;3.00;;;;;;;35.30;20.49;98870.19;5071966;28;20040;-47
2023/06/02 07:55:36;;;;;;;13.55;3.00;;;;;;;36.22;19.84;98860.50;5071790;28;20084;-49
2023/06/02 07:58:02;;;;;;;10.18;3.00;;;;;;;36.82;19.05;98863.69;5054046;28;20051;-46
2023/06/02 08:00:27;;;;;;;6.75;2.83;;;;;;;36.72;19.05;98866.19;5088968;28;20036;-46
2023/06/02 08:02:53;;;;;;;8.93;3.33;;;;;;;37.33;18.81;98867.31;5073724;28;20052;-49
2023/06/02 08:05:19;;;;;;;10.23;3.47;;;;;;;36.86;18.33;98862.13;5091926;28;20039;-47
2023/06/02 08:07:45;;;;;;;6.13;2.97;;;;;;;37.30;18.72;98855.09;5091951;28;20533;-48
2023/06/02 08:10:12;;;;;;;7.43;3.17;;;;;;;37.43;18.03;98862.06;5091299;28;20123;-46
2023/06/02 08:12:38;;;;;;;7.25;3.58;;;;;;;38.05;17.71;98854.66;5073394;28;20152;-46
2023/06/02 08:15:04;;;;;;;9.75;4.25;;;;;;;38.49;17.34;98822.13;5091182;28;20043;-46
2023/06/02 08:17:30;;;;;;;7.78;2.88;;;;;;;39.15;17.00;98850.84;5073701;28;20477;-46
2023/06/02 08:19:57;;;;;;;7.90;3.30;;;;;;;38.90;16.82;98842.44;5073401;28;20032;-51
2023/06/02 08:22:25;;;;;;;8.60;3.33;;;;;;;38.65;17.27;98844.84;5073015;28;20151;-50
2023/06/02 08:24:53;;;;;;;5.97;2.90;;;;;;;39.20;17.09;98837.31;5073334;28;20040;-47
2023/06/02 08:27:21;;;;;;;6.50;2.70;;;;;;;39.43;16.41;98833.44;5073569;28;20043;-49
2023/06/02 08:29:49;;;;;;;9.98;4.90;;;;;;;39.61;16.81;98832.22;5091088;28;20089;-49
2023/06/02 08:32:17;;;;;;;17.58;10.25;;;;;;;40.14;16.32;98812.97;5072779;28;20048;-46
2023/06/02 08:34:44;;;;;;;11.07;4.18;;;;;;;40.63;15.87;98824.34;5091073;28;20035;-48
2023/06/02 08:37:16;;;;;;;;;;;;;;;39.44;16.08;98831.53;5091621;28;20189;-50
2023/06/02 08:39:45;;;;;;;8.95;2.63;;;;;;;38.34;16.50;98820.03;5090742;28;19926;-48
2023/06/02 08:42:11;;;;;;;13.52;7.85;;;;;;;38.66;16.70;98824.78;5090931;28;20039;-51
2023/06/02 08:44:38;;;;;;;12.07;9.32;;;;;;;39.86;15.99;98820.69;5090495;28;20044;-50
2023/06/02 08:47:10;;;;;;;6.27;3.03;;;;;;;40.52;15.40;98822.66;5090994;28;20472;-48
2023/06/02 08:49:36;;;;;;;6.65;2.85;;;;;;;40.59;15.27;98828.69;5089655;28;20043;-50
2023/06/02 08:52:08;;;;;;;7.55;2.85;;;;;;;39.72;15.55;98814.88;5090846;28;20070;-53
2023/06/02 08:54:35;;;;;;;5.97;2.88;;;;;;;39.18;15.67;98808.72;5072169;28;20062;-46
2023/06/02 08:57:04;;;;;;;7.47;2.97;;;;;;;39.31;15.86;98817.25;5072565;28;20039;-53
2023/06/02 08:59:30;;;;;;;8.30;2.70;;;;;;;39.10;15.79;98792.91;5072042;28;20040;-47
2023/06/02 09:01:55;;;;;;;5.40;2.83;;;;;;;38.64;16.22;98805.16;5072494;28;20633;-48
2023/06/02 09:04:21;;;;;;;4.55;2.60;;;;;;;38.77;16.17;98797.44;5055772;28;20039;-48
2023/06/02 09:06:50;;;;;;;8.40;3.20;;;;;;;38.87;16.30;98792.09;5089897;28;20047;-46
2023/06/02 09:09:16;;;;;;;5.05;2.83;;;;;;;38.94;16.22;98800.09;5072146;28;20040;-49
2023/06/02 09:11:57;;;;;;;7.40;3.00;;;;;;;38.84;16.46;98806.19;5090453;28;20040;-47
2023/06/02 09:14:23;;;;;;;8.07;2.92;;;;;;;38.60;16.38;98796.72;5071873;28;20084;-49
2023/06/02 09:16:49;;;;;;;4.18;2.40;;;;;;;39.00;16.01;98790.88;5089955;28;20038;-49
2023/06/02 09:19:15;;;;;;;6.68;2.63;;;;;;;38.87;16.45;98764.94;5090220;28;20131;-49
2023/06/02 09:21:41;;;;;;;10.20;3.35;;;;;;;39.82;16.65;98781.47;5089882;28;20047;-48
2023/06/02 09:24:07;;;;;;;4.70;2.80;;;;;;;40.74;15.63;98776.13;5071969;28;20032;-49
2023/06/02 09:26:33;;;;;;;6.80;3.35;;;;;;;41.58;15.19;98777.53;5089578;28;20051;-52
2023/06/02 09:29:11;;;;;;;3.72;2.80;;;;;;;42.49;14.73;98774.50;5090060;28;20043;-48
2023/06/02 09:31:45;;;;;;;8.63;3.28;;;;;;;40.69;15.16;98772.56;5089590;28;20044;-47
2023/06/02 09:34:12;;;;;;;8.10;3.20;;;;;;;38.84;16.57;98760.00;5071885;28;20043;-47
2023/06/02 09:36:38;;;;;;;6.37;2.90;;;;;;;38.06;17.27;98758.56;5071574;28;20035;-50
2023/06/02 09:39:06;;;;;;;7.22;2.85;;;;;;;36.77;18.59;98759.78;5089915;28;20627;-48
2023/06/02 09:41:32;;;;;;;9.10;3.08;;;;;;;35.57;19.71;98759.72;5071240;28;20088;-47
2023/06/02 09:43:57;;;;;;;9.75;3.17;;;;;;;34.72;20.62;98741.13;5089738;28;20517;-46
2023/06/02 09:46:23;;;;;;;9.70;3.30;;;;;;;34.12;21.34;98742.97;5089406;28;20173;-49
2023/06/02 09:48:57;;;;;;;5.47;3.28;;;;;;;33.26;22.24;98751.09;5070693;28;20044;-48
2023/06/02 09:51:24;;;;;;;5.75;2.67;;;;;;;32.41;22.87;98736.31;5089973;28;20047;-47
2023/06/02 09:53:50;;;;;;;9.32;3.13;;;;;;;32.41;23.38;98738.19;5071216;28;20067;-49
2023/06/02 09:56:23;;;;;;;12.80;3.33;;;;;;;31.91;23.99;98698.47;5088786;28;20035;-47
2023/06/02 09:58:48;;;;;;;3.55;2.60;;;;;;;31.71;24.30;98726.47;5071187;28;20051;-49
2023/06/02 10:01:15;;;;;;;9.05;3.30;;;;;;;31.22;25.03;98719.72;5070309;28;20036;-50
2023/06/02 10:03:42;;;;;;;13.25;3.30;;;;;;;30.72;25.31;98719.25;5071326;28;20131;-47
2023/06/02 10:06:26;;;;;;;9.30;3.67;;;;;;;30.70;26.07;98707.06;5054731;28;20044;-48
2023/06/02 10:09:06;;;;;;;9.77;2.97;;;;;;;31.06;25.53;98706.69;5079667;28;20204;-47
2023/06/02 10:12:06;;;;;;;9.40;3.03;;;;;;;31.31;25.24;98696.13;5089329;28;20131;-46
2023/06/02 10:14:32;;;;;;;9.40;3.20;;;;;;;30.84;25.58;98708.72;5035781;28;20400;-47
2023/06/02 10:17:32;;;;;;;5.75;2.75;;;;;;;32.18;24.62;98698.38;5088736;28;20097;-47
2023/06/02 10:20:24;;;;;;;5.57;3.17;;;;;;;31.84;24.59;98699.53;5089285;28;20043;-51
2023/06/02 10:22:56;;;;;;;10.00;3.38;;;;;;;32.93;23.81;98686.69;5054344;28;20050;-47
2023/06/02 10:25:27;;;;;;;7.80;3.30;;;;;;;34.77;22.17;98691.81;5054347;28;20043;-51
2023/06/02 10:27:53;;;;;;;6.45;3.38;;;;;;;32.57;23.63;98686.53;5070474;28;20043;-50
2023/06/02 10:30:23;;;;;;;4.75;2.60;;;;;;;32.65;23.47;98675.56;5070994;28;20047;-48
2023/06/02 10:32:50;;;;;;;6.70;3.08;;;;;;;32.69;23.43;98677.59;5074143;28;20039;-51
2023/06/02 10:35:16;;;;;;;5.65;2.90;;;;;;;31.55;24.33;98663.22;5067365;28;20085;-53
2023/06/02 10:37:43;;;;;;;4.88;2.88;;;;;;;30.99;25.24;98661.03;5050598;28;20073;-49
2023/06/02 10:40:10;;;;;;;6.78;2.72;;;;;;;30.50;25.53;98661.44;5050359;28;20135;-47
2023/06/02 10:42:37;;;;;;;8.02;2.67;;;;;;;30.18;25.82;98652.28;5068346;28;20131;-47
2023/06/02 10:45:21;;;;;;;6.90;3.25;;;;;;;29.69;27.04;98652.50;5084184;28;20053;-48
2023/06/02 10:47:47;;;;;;;5.97;2.72;;;;;;;29.31;27.41;98656.59;5088440;28;20140;-48
2023/06/02 10:50:24;;;;;;;8.70;3.47;;;;;;;30.95;25.77;98659.78;5088567;28;20150;-52
2023/06/02 10:52:59;;;;;;;8.38;3.15;;;;;;;31.91;24.75;98663.53;5053642;28;20365;-51
2023/06/02 10:55:26;;;;;;;6.97;3.33;;;;;;;31.31;24.81;98635.16;5088130;28;20052;-47
2023/06/02 10:58:06;;;;;;;6.85;2.90;;;;;;;32.14;24.34;98628.03;5088575;28;20471;-46
2023/06/02 11:00:43;;;;;;;12.05;3.20;;;;;;;32.71;23.51;98645.06;5088414;28;20473;-48
2023/06/02 11:03:09;;;;;;;7.15;3.20;;;;;;;34.34;22.19;98635.34;5088071;28;20123;-49
2023/06/02 11:05:35;;;;;;;7.85;2.90;;;;;;;35.26;21.09;98652.78;5069955;28;20143;-50
2023/06/02 11:08:17;;;;;;;7.00;3.03;;;;;;;35.53;19.77;98645.81;5069983;28;20105;-46
2023/06/02 11:10:44;;;;;;;5.45;2.53;;;;;;;34.61;19.93;98638.47;5087771;28;20046;-46
2023/06/02 11:13:11;;;;;;;7.78;2.95;;;;;;;32.60;21.17;98633.13;5087789;28;20097;-48
2023/06/02 11:15:38;;;;;;;11.57;2.47;;;;;;;31.02;22.91;98631.13;5070090;28;20073;-46
2023/06/02 11:18:22;;;;;;;9.23;2.85;;;;;;;30.28;23.64;98625.06;5087859;28;20047;-48
2023/06/02 11:20:55;;;;;;;4.57;2.70;;;;;;;29.95;23.58;98610.75;5088173;28;20039;-51
2023/06/02 11:23:21;;;;;;;5.88;2.42;;;;;;;31.25;22.33;98617.22;5088365;28;20036;-51
2023/06/02 11:25:48;;;;;;;9.02;2.90;;;;;;;32.69;21.32;98607.59;5069988;28;20482;-48
2023/06/02 11:28:20;;;;;;;5.57;2.60;;;;;;;33.92;20.29;98599.41;5069070;28;20459;-47
2023/06/02 11:30:46;;;;;;;4.05;2.50;;;;;;;35.24;19.02;98604.34;5088107;28;20093;-50
2023/06/02 11:33:13;;;;;;;6.80;2.42;;;;;;;33.80;19.65;98596.69;5087380;28;20541;-48
2023/06/02 11:35:46;;;;;;;5.35;3.05;;;;;;;32.55;21.00;98597.97;5086871;28;20040;-49
2023/06/02 11:38:16;;;;;;;6.13;2.42;;;;;;;31.49;21.64;98581.59;5088008;28;20423;-51